• Join FlightAware (Why Join?)
  • Login
  • US Flag 
 
05:00PM EST


 

Airport Tracker/Info


-or-


 

Live Flight TrackerFlight Track Log ✈ UPS2984 ✈ 22-Apr-2013 ✈ KSDF - KBFI

Flight Track Log - Related Links

Times and Time Zones

All times are in EDT time to prevent confusion due to time zone crossing. See the UPS2984 flight status page for this flight to view local times or setup timezone preferences in your user account.

Time Position Orientation Groundspeed Altitude Reporting Facility
EDT Latitude Longitude Course Direction KTS MPH feet Rate Location/Type
03:39PM 38.1580 -85.7390 161° South 160 184 1,200  Level FlightAware
03:39PM 38.1330 -85.7320 168° South 197 227 2,100 1,800 Climbing FlightAware
03:40PM 38.1080 -85.7330 182° South 234 269 2,900 2,520 Climbing FlightAware
03:40PM 38.0920 -85.7350 186° South 238 274 3,800 3,360 Climbing FlightAware
03:40PM 38.0780 -85.7460 212° Southwest 252 290 4,600 3,180 Climbing FlightAware
03:41PM 38.0670 -85.7660 235° Southwest 268 308 5,400 3,600 Climbing FlightAware
03:41PM 38.0640 -85.7810 256° West 268 308 6,100 4,080 Climbing FlightAware
03:41PM 38.0660 -85.8040 276° West 274 315 7,100 3,720 Climbing FlightAware
03:42PM 38.0740 -85.8510 282° West 284 327 8,900 3,600 Climbing FlightAware
03:42PM 38.0750 -85.8690 274° West 287 330 9,500 2,880 Climbing FlightAware
03:42PM 38.0740 -85.9370 269° West 317 365 11,300 2,640 Climbing FlightAware
03:43PM 38.0850 -86.0390 278° West 362 417 13,500 2,700 Climbing FlightAware
03:44PM 38.0960 -86.1240 279° West 381 438 15,400 3,120 Climbing FlightAware
03:45PM 38.1080 -86.2150 280° West 392 451 17,700 3,240 Climbing FlightAware
03:45PM 38.1210 -86.3200 279° West 402 463 20,000 2,700 Climbing FlightAware
03:46PM 38.1300 -86.4080 277° West 413 475 21,600 2,460 Climbing FlightAware
03:47PM 38.1460 -86.5490 278° West 428 493 23,900 2,520 Climbing FlightAware
03:48PM 38.1580 -86.6490 279° West 434 499 25,600 2,400 Climbing FlightAware
03:48PM 38.1710 -86.7650 278° West 443 510 27,300 2,220 Climbing FlightAware
03:49PM 38.1830 -86.8650 279° West 444 511 28,800 1,800 Climbing FlightAware
03:50PM 38.1960 -86.9840 278° West 455 524 29,900 1,260 Climbing FlightAware
03:50PM 38.2080 -87.0910 278° West 450 518 30,600 1,860 Climbing FlightAware
03:51PM 38.2210 -87.2030 278° West 438 504 32,600 1,620 Climbing FlightAware
03:52PM 38.2330 -87.3090 278° West 445 512 32,900 900 Climbing FlightAware
03:52PM 38.2430 -87.4080 277° West 435 501 33,800 2,040 Climbing FlightAware
03:53PM 38.2550 -87.5200 278° West 414 476 35,800 1,500 Climbing FlightAware
03:54PM 38.2660 -87.6170 278° West 408 470 36,000 120 Climbing FlightAware
03:55PM 38.2760 -87.7120 278° West 407 468 36,000  Level FlightAware
03:55PM 38.2870 -87.8200 277° West 409 471 36,000  Level FlightAware
03:56PM 38.2970 -87.9150 278° West 408 470 36,000  Level FlightAware
03:57PM 38.3080 -88.0200 278° West 407 468 36,000  Level FlightAware
03:57PM 38.3180 -88.1150 278° West 407 468 36,000  Level FlightAware
03:58PM 38.3290 -88.2200 278° West 406 467 36,000  Level FlightAware
03:59PM 38.3380 -88.3170 277° West 406 467 36,000  Level FlightAware
03:59PM 38.3480 -88.4090 278° West 405 466 36,000  Level FlightAware
04:00PM 38.3580 -88.5150 277° West 405 466 36,000  Level FlightAware
04:01PM 38.3670 -88.6090 277° West 404 465 36,000  Level FlightAware
04:02PM 38.3780 -88.7180 277° West 403 464 36,000  Level FlightAware
04:02PM 38.3870 -88.8110 277° West 403 464 36,000  Level FlightAware
04:03PM 38.3960 -88.9060 277° West 402 463 36,000  Level FlightAware
04:04PM 38.4060 -89.0090 277° West 401 461 36,000  Level FlightAware
04:04PM 38.4150 -89.1070 277° West 401 461 36,000  Level FlightAware
04:05PM 38.4350 -89.2040 285° West 401 461 36,000  Level FlightAware
04:06PM 38.4660 -89.2910 294° West 402 463 36,000  Level FlightAware
04:06PM 38.5060 -89.3730 302° West 404 465 36,000  Level FlightAware
04:07PM 38.5500 -89.4600 303° West 402 463 36,000  Level FlightAware
04:08PM 38.5920 -89.5410 304° West 403 464 36,000  Level FlightAware
04:09PM 38.6320 -89.6190 303° West 403 464 36,000  Level FlightAware
04:09PM 38.6730 -89.7010 303° West 403 464 36,000  Level FlightAware
04:10PM 38.7080 -89.7690 303° West 403 464 36,000  Level FlightAware
04:11PM 38.7630 -89.8740 304° West 407 468 36,000  Level FlightAware
04:11PM 38.7970 -89.9430 302° West 407 468 36,000  Level FlightAware
04:12PM 38.8640 -90.0730 304° West 411 473 36,000  Level FlightAware
04:13PM 38.9070 -90.1580 303° West 413 475 36,000  Level FlightAware
04:14PM 38.9470 -90.2410 302° West 413 475 36,000  Level FlightAware
04:14PM 38.9960 -90.3340 304° West 414 476 36,000  Level FlightAware
04:15PM 39.0400 -90.4220 303° West 415 478 36,000  Level FlightAware
04:16PM 39.0820 -90.5060 303° West 416 479 36,000  Level FlightAware
04:17PM 39.1310 -90.6060 302° West 416 479 36,000  Level FlightAware
04:17PM 39.1620 -90.6680 303° West 416 479 36,000  Level FlightAware
04:18PM 39.2130 -90.7700 303° West 416 479 36,000  Level FlightAware
04:19PM 39.2550 -90.8570 302° West 415 478 36,000  Level FlightAware
04:19PM 39.2900 -90.9290 302° West 415 478 36,000  Level FlightAware
04:20PM 39.3390 -91.0270 303° West 413 475 36,000  Level FlightAware
04:21PM 39.3870 -91.1240 303° West 412 474 36,000  Level FlightAware
04:21PM 39.4270 -91.2070 302° West 411 473 36,000  Level FlightAware
04:22PM 39.4710 -91.2960 303° West 410 472 36,000  Level FlightAware
04:23PM 39.5240 -91.4090 301° West 410 472 36,000  Level FlightAware
04:24PM 39.5570 -91.4800 301° West 410 472 36,000  Level FlightAware
04:24PM 39.6080 -91.5800 304° West 411 473 36,000  Level FlightAware
04:25PM 39.6630 -91.6970 301° West 412 474 36,000  Level FlightAware
04:26PM 39.7060 -91.7860 302° West 413 475 36,000  Level FlightAware
04:27PM 39.7550 -91.8880 302° West 413 475 36,000  Level FlightAware
04:28PM 39.8080 -91.9990 302° West 409 471 36,000  Level FlightAware
04:28PM 39.8410 -92.0690 302° West 408 470 36,000  Level FlightAware
04:29PM 39.8930 -92.1770 302° West 404 465 36,000  Level FlightAware
04:30PM 39.9310 -92.2580 301° West 403 464 36,000  Level FlightAware
04:30PM 39.9700 -92.3420 301° West 401 461 36,000  Level FlightAware
04:31PM 40.0080 -92.4240 301° West 398 458 36,000  Level FlightAware
04:32PM 40.0520 -92.5160 302° West 396 456 36,000  Level FlightAware
04:33PM 40.0930 -92.6060 301° West 393 452 36,000  Level FlightAware
04:33PM 40.1370 -92.6990 302° West 391 450 36,000  Level FlightAware
04:34PM 40.1740 -92.7790 301° West 391 450 36,000  Level FlightAware
04:35PM 40.2110 -92.8600 301° West 389 448 36,000  Level FlightAware
04:35PM 40.2490 -92.9410 302° West 388 447 36,000  Level FlightAware
04:36PM 40.2910 -93.0330 301° West 388 447 36,000  Level FlightAware
04:37PM 40.3290 -93.1150 301° West 387 445 36,000  Level FlightAware
04:38PM 40.3680 -93.2020 300° West 386 444 36,000  Level FlightAware
04:38PM 40.4030 -93.2770 302° West 387 445 36,000  Level FlightAware
04:39PM 40.4470 -93.3750 301° West 387 445 36,000  Level FlightAware
04:40PM 40.4840 -93.4550 301° West 388 447 36,000  Level FlightAware
04:40PM 40.5240 -93.5450 300° West 390 449 36,000  Level FlightAware
04:41PM 40.5530 -93.6100 300° West 390 449 36,000  Level FlightAware
04:42PM 40.6090 -93.7340 301° West 391 450 36,000  Level FlightAware
04:43PM 40.6440 -93.8120 301° West 392 451 36,000  Level FlightAware
04:43PM 40.6750 -93.8830 300° West 392 451 36,000  Level FlightAware
04:44PM 40.7050 -93.9530 299° West 392 451 36,000  Level FlightAware
04:45PM 40.7670 -94.0870 301° West 397 457 36,000  Level FlightAware
04:45PM 40.8040 -94.1710 300° West 398 458 36,000  Level FlightAware
04:46PM 40.8470 -94.2670 301° West 399 459 36,000  Level FlightAware
04:47PM 40.8900 -94.3670 300° West 398 458 36,000  Level FlightAware
04:48PM 40.9200 -94.4390 299° West 398 458 36,000  Level FlightAware
04:49PM 40.9580 -94.5300 299° West 398 458 36,000  Level FlightAware
04:49PM 40.9880 -94.6020 299° West 398 458 36,000  Level FlightAware
04:50PM 41.0180 -94.6750 299° West 398 458 36,000  Level FlightAware
04:51PM 41.0490 -94.7480 299° West 398 458 36,000  Level FlightAware
04:51PM 41.0790 -94.8200 299° West 398 458 36,000  Level FlightAware
04:52PM 41.1170 -94.9110 299° West 398 458 36,000  Level FlightAware
04:53PM 41.1470 -94.9840 299° West 398 458 36,000  Level FlightAware
04:53PM 41.1780 -95.0560 300° West 398 458 36,000  Level FlightAware
04:54PM 41.2080 -95.1290 299° West 398 458 36,000  Level FlightAware
04:55PM 41.2380 -95.2020 299° West 398 458 36,000  Level FlightAware
04:55PM 41.2690 -95.2750 299° West 398 458 36,000  Level FlightAware
04:57PM 41.4158 -95.5858 299° West 408 470 36,000  Level Minneapolis Center
04:58PM 41.4714 -95.7181 299° West 408 470 36,000  Level Minneapolis Center
04:59PM 41.5269 -95.8500 299° West 408 470 36,000  Level Minneapolis Center
05:00PM 41.5931 -96.0089 299° West 407 468 36,000  Level Minneapolis Center
05:01PM 41.6469 -96.1386 299° West 409 471 36,000  Level Minneapolis Center
05:02PM 41.6994 -96.2653 299° West 410 472 36,000  Level Minneapolis Center
05:03PM 41.7542 -96.3981 299° West 411 473 36,000  Level Minneapolis Center
05:04PM 41.8197 -96.5586 299° West 410 472 36,000  Level Minneapolis Center
05:05PM 41.8744 -96.6925 299° West 411 473 36,000  Level Minneapolis Center
05:06PM 41.9289 -96.8272 299° West 413 475 36,000  Level Minneapolis Center
05:07PM 41.9839 -96.9631 299° West 414 476 36,000  Level Minneapolis Center
05:08PM 42.0386 -97.0989 299° West 414 476 36,000  Level Minneapolis Center
05:09PM 42.0928 -97.2347 298° West 413 475 36,000  Level Minneapolis Center
05:10PM 42.1578 -97.3978 298° West 413 475 36,000  Level Minneapolis Center
05:11PM 42.2119 -97.5344 298° West 412 474 36,000  Level Minneapolis Center
05:12PM 42.2656 -97.6706 298° West 412 474 36,000  Level Minneapolis Center
05:13PM 42.3189 -97.8067 298° West 411 473 36,000  Level Minneapolis Center
05:14PM 42.3767 -97.9544 298° West 410 472 36,000  Level Minneapolis Center
05:15PM 42.4294 -98.0906 298° West 410 472 36,000  Level Minneapolis Center
05:16PM 42.4822 -98.2272 298° West 410 472 36,000  Level Minneapolis Center
05:17PM 42.5347 -98.3639 298° West 410 472 36,000  Level Minneapolis Center
05:18PM 42.5875 -98.5006 298° West 410 472 36,000  Level Minneapolis Center
05:19PM 42.6394 -98.6383 297° West 410 472 36,000  Level Minneapolis Center
05:20PM 42.7022 -98.8033 297° West 410 472 36,000  Level Minneapolis Center
05:21PM 42.7544 -98.9417 297° West 415 478 36,000  Level Minneapolis Center
05:22PM 42.8067 -99.0808 297° West 414 476 36,000  Level Minneapolis Center
05:23PM 42.8586 -99.2203 297° West 414 476 36,000  Level Minneapolis Center
05:24PM 42.9108 -99.3603 297° West 413 475 36,000  Level Minneapolis Center
05:25PM 42.9625 -99.5003 297° West 413 475 36,000  Level Minneapolis Center
05:26PM 43.0139 -99.6403 297° West 412 474 36,000  Level Minneapolis Center
05:27PM 43.0683 -99.7886 297° West 413 475 36,000  Level Minneapolis Center
05:28PM 43.1194 -99.9294 296° West 413 475 36,000  Level Minneapolis Center
05:30PM 43.1806 -100.0981 296° West 412 474 36,000  Level Minneapolis Center
05:31PM 43.2311 -100.2389 296° West 411 473 36,000  Level Minneapolis Center
05:32PM 43.2814 -100.3794 296° West 410 472 36,000  Level Minneapolis Center
05:32PM 43.3203 -100.4908 296° West 413 475 36,000  Level Denver Center
05:33PM 43.3603 -100.5994 297° West 404 465 36,000  Level Denver Center
05:34PM 43.3914 -100.6886 296° West 408 470 36,000  Level Minneapolis Center
05:35PM 43.4408 -100.8289 296° West 407 468 36,000  Level Minneapolis Center
05:35PM 43.4694 -100.9100 296° West 408 470 36,000  Level Denver Center
05:36PM 43.5175 -101.0503 295° West 406 467 36,000  Level Denver Center
05:37PM 43.5572 -101.1633 296° West 407 468 36,000  Level Denver Center
05:38PM 43.6158 -101.3319 296° West 406 467 36,000  Level Denver Center
05:40PM 43.6650 -101.4750 295° West 410 472 36,000  Level Denver Center
05:41PM 43.7131 -101.6156 295° West 406 467 36,000  Level Denver Center
05:42PM 43.7711 -101.7856 295° West 406 467 36,000  Level Denver Center
05:43PM 43.8183 -101.9250 295° West 402 463 36,000  Level Denver Center
05:44PM 43.8653 -102.0667 295° West 402 463 36,000  Level Denver Center
05:45PM 43.9108 -102.2058 294° West 399 459 36,000  Level Denver Center
05:46PM 43.9569 -102.3472 294° West 398 458 36,000  Level Denver Center
05:47PM 44.0056 -102.4892 296° West 403 464 36,000  Level Denver Center
05:48PM 44.0536 -102.6344 295° West 410 472 36,000  Level Denver Center
05:49PM 44.1017 -102.7783 295° West 410 472 36,000  Level Denver Center
05:50PM 44.1572 -102.9492 294° West 412 474 36,000  Level Denver Center
05:51PM 44.2067 -103.0994 295° West 414 476 36,000  Level Denver Center
05:52PM 44.2558 -103.2514 294° West 413 475 36,000  Level Denver Center
05:53PM 44.3000 -103.3925 294° West 414 476 36,000  Level Denver Center
05:54PM 44.3522 -103.5575 294° West 416 479 36,000  Level Denver Center
05:55PM 44.3981 -103.6997 294° West 419 482 36,000  Level Denver Center
05:56PM 44.4422 -103.8425 293° West 418 481 36,000  Level Denver Center
05:57PM 44.4950 -104.0100 294° West 421 484 36,000  Level Denver Center
05:58PM 44.5397 -104.1528 294° West 419 482 36,000  Level Denver Center
05:59PM 44.5917 -104.3206 294° West 420 483 36,000  Level Denver Center
06:00PM 44.6217 -104.4153 294° West 421 484 36,000  Level Salt Lake Center
06:00PM 44.6353 -104.4642 291° West 419 482 36,000  Level Denver Center
06:01PM 44.6872 -104.6331 293° West 421 484 36,000  Level Denver Center
06:02PM 44.7303 -104.7781 293° West 421 484 36,000  Level Denver Center
06:03PM 44.7781 -104.9322 294° West 421 484 36,000  Level Denver Center
06:04PM 44.8286 -105.1019 293° West 422 486 36,000  Level Denver Center
06:05PM 44.8719 -105.2481 293° West 422 486 36,000  Level Denver Center
06:06PM 44.9156 -105.3933 293° West 421 484 36,000  Level Denver Center
06:07PM 44.9658 -105.5644 293° West 422 486 36,000  Level Denver Center
06:08PM 45.0089 -105.7111 293° West 422 486 36,000  Level Denver Center
06:09PM 45.0444 -105.8331 292° West 422 486 36,000  Level Denver Center
06:10PM 45.0783 -105.9550 292° West 420 483 36,000  Level Salt Lake Center
06:11PM 45.1067 -106.1347 283° West 419 482 36,000  Level Salt Lake Center
06:12PM 45.1333 -106.2861 284° West 416 479 36,000  Level Salt Lake Center
06:13PM 45.1622 -106.4644 283° West 416 479 36,000  Level Salt Lake Center
06:14PM 45.1883 -106.6161 284° West 416 479 36,000  Level Salt Lake Center
06:15PM 45.2128 -106.7697 283° West 418 481 36,000  Level Salt Lake Center
06:16PM 45.2422 -106.9456 283° West 413 475 36,000  Level Salt Lake Center
06:17PM 45.2664 -107.0978 283° West 415 478 36,000  Level Salt Lake Center
06:18PM 45.2933 -107.2747 282° West 412 474 36,000  Level Salt Lake Center
06:19PM 45.3178 -107.4297 283° West 418 481 36,000  Level Salt Lake Center
06:20PM 45.3458 -107.6086 283° West 417 480 36,000  Level Salt Lake Center
06:21PM 45.3703 -107.7617 283° West 418 481 36,000  Level Salt Lake Center
06:22PM 45.3936 -107.9153 282° West 417 480 36,000  Level Salt Lake Center
06:23PM 45.4206 -108.0961 282° West 422 486 36,000  Level Salt Lake Center
06:24PM 45.4433 -108.2497 282° West 417 480 36,000  Level Salt Lake Center
06:25PM 45.4711 -108.4311 282° West 420 483 36,000  Level Salt Lake Center
06:26PM 45.4931 -108.5858 281° West 418 481 36,000  Level Salt Lake Center
06:27PM 45.5197 -108.7683 282° West 421 484 36,000  Level Salt Lake Center
06:28PM 45.5425 -108.9244 282° West 421 484 36,000  Level Salt Lake Center
06:29PM 45.5642 -109.0828 281° West 426 490 36,000  Level Salt Lake Center
06:30PM 45.5908 -109.2672 282° West 426 490 36,000  Level Salt Lake Center
06:31PM 45.6122 -109.4244 281° West 423 487 36,000  Level Salt Lake Center
06:32PM 45.6378 -109.6114 281° West 430 495 36,000  Level Salt Lake Center
06:33PM 45.6594 -109.7689 281° West 424 488 36,000  Level Salt Lake Center
06:35PM 45.6839 -109.9575 281° West 432 497 36,000  Level Salt Lake Center
06:36PM 45.7050 -110.1183 281° West 430 495 36,000  Level Salt Lake Center
06:37PM 45.7256 -110.2794 280° West 430 495 36,000  Level Salt Lake Center
06:38PM 45.7508 -110.4678 281° West 432 497 36,000  Level Salt Lake Center
06:39PM 45.7708 -110.6275 280° West 426 490 36,000  Level Salt Lake Center
06:40PM 45.7914 -110.7969 280° West 431 496 36,000  Level Salt Lake Center
06:41PM 45.8117 -110.9658 280° West 433 498 36,000  Level Salt Lake Center
06:42PM 45.8364 -111.1603 280° West 431 496 36,000  Level Salt Lake Center
06:43PM 45.8556 -111.3253 280° West 433 498 36,000  Level Salt Lake Center
06:44PM 45.8758 -111.4956 280° West 433 498 36,000  Level Salt Lake Center
06:45PM 45.8956 -111.6667 279° West 436 502 36,000  Level Salt Lake Center
06:46PM 45.9158 -111.8383 280° West 436 502 36,000  Level Salt Lake Center
06:47PM 45.9344 -112.0092 279° West 435 501 36,000  Level Salt Lake Center
06:48PM 45.9539 -112.1808 279° West 435 501 36,000  Level Salt Lake Center
06:49PM 45.9769 -112.3867 279° West 435 501 36,000  Level Salt Lake Center
06:50PM 45.9956 -112.5586 279° West 435 501 36,000  Level Salt Lake Center
06:51PM 46.0136 -112.7306 279° West 435 501 36,000  Level Salt Lake Center
06:52PM 46.0333 -112.9019 279° West 436 502 36,000  Level Salt Lake Center
06:53PM 46.0506 -113.0744 278° West 435 501 36,000  Level Salt Lake Center
06:54PM 46.0681 -113.2461 278° West 434 499 36,000  Level Salt Lake Center
06:55PM 46.0881 -113.4200 279° West 439 505 36,000  Level Salt Lake Center
06:56PM 46.1044 -113.5922 278° West 435 501 36,000 -60 Level Salt Lake Center
06:57PM 46.1211 -113.7686 278° West 434 499 35,900 -60 Descending Salt Lake Center
06:58PM 46.1381 -113.9408 278° West 435 501 35,900  Level Salt Lake Center
06:59PM 46.1542 -114.1136 278° West 437 503 35,900  Level Salt Lake Center
07:00PM 46.1733 -114.3208 278° West 436 502 35,900  Level Salt Lake Center
07:01PM 46.1886 -114.4906 277° West 430 495 35,900  Level Salt Lake Center
07:02PM 46.2044 -114.6622 278° West 431 496 35,900  Level Salt Lake Center
07:03PM 46.2192 -114.8336 277° West 430 495 35,900  Level Salt Lake Center
07:04PM 46.2342 -115.0064 277° West 434 499 35,900  Level Salt Lake Center
07:05PM 46.2500 -115.1919 277° West 434 499 35,900  Level Salt Lake Center
07:06PM 46.2639 -115.3622 277° West 431 496 35,900  Level Salt Lake Center
07:07PM 46.2786 -115.5333 277° West 431 496 35,900  Level Salt Lake Center
07:08PM 46.2919 -115.7061 276° West 432 497 35,900  Level Salt Lake Center
07:09PM 46.3058 -115.8778 277° West 430 495 35,900  Level Seattle Center
07:10PM 46.3186 -116.0497 276° West 432 497 35,900  Level Seattle Center
07:11PM 46.3325 -116.2203 277° West 428 493 35,900  Level Seattle Center
07:12PM 46.3442 -116.3894 276° West 424 488 35,900  Level Seattle Center
07:13PM 46.3575 -116.5647 276° West 427 491 36,000  Climbing Seattle Center
07:14PM 46.3694 -116.7306 276° West 426 490 35,900 -60 Descending Seattle Center
07:15PM 46.3811 -116.9006 276° West 425 489 35,900  Level Seattle Center
07:16PM 46.3928 -117.0719 276° West 426 490 35,900  Level Seattle Center
07:17PM 46.4036 -117.2419 275° West 424 488 35,900  Level Seattle Center
07:18PM 46.4147 -117.4089 276° West 419 482 35,900  Level Seattle Center
07:19PM 46.4256 -117.5786 275° West 423 487 35,900  Level Seattle Center
07:20PM 46.4378 -117.7789 275° West 417 480 35,900  Level Seattle Center
07:21PM 46.4475 -117.9469 275° West 418 481 35,900  Level Seattle Center
07:22PM 46.4581 -118.1133 275° West 414 476 35,900  Level Seattle Center
07:24PM 46.4678 -118.2811 275° West 417 480 35,900  Level Seattle Center
07:25PM 46.4767 -118.4492 274° West 418 481 36,000  Climbing Seattle Center
07:26PM 46.4861 -118.6178 275° West 420 483 36,000 -60 Level Seattle Center
07:27PM 46.4958 -118.7864 275° West 420 483 35,900 -60 Descending Seattle Center
07:28PM 46.5042 -118.9544 274° West 418 481 35,900  Level Seattle Center
07:29PM 46.5119 -119.1203 274° West 416 479 35,900  Level Seattle Center
07:30PM 46.5194 -119.2833 274° West 408 470 35,900  Level Seattle Center
07:31PM 46.5272 -119.4481 274° West 408 470 35,900  Level Seattle Center
07:32PM 46.5356 -119.6097 274° West 404 465 35,900  Level Seattle Center
07:33PM 46.5447 -119.8031 274° West 400 460 35,900 -360 Level Seattle Center
07:34PM 46.5717 -119.9556 284° West 389 448 35,200 -1,740 Descending Seattle Center
07:35PM 46.6058 -120.1031 289° West 387 445 32,400 -2,640 Descending Seattle Center
07:36PM 46.6431 -120.2506 290° West 388 447 29,900 -2,340 Descending Seattle Center
07:37PM 46.6783 -120.3956 290° West 381 438 27,700 -2,040 Descending Seattle Center
07:38PM 46.7128 -120.5358 290° West 371 427 25,800 -1,920 Descending Seattle Center
07:39PM 46.7442 -120.6703 289° West 358 412 23,900 -1,800 Descending Seattle Center
07:40PM 46.7753 -120.8019 289° West 348 400 22,200 -1,740 Descending Seattle Center
07:41PM 46.8061 -120.9319 289° West 338 389 20,400 -1,860 Descending Seattle Center
07:42PM 46.8522 -121.0419 302° West 320 368 18,500 -2,040 Descending Seattle Center
07:43PM 46.9133 -121.1672 306° West 322 371 16,300 -2,100 Descending Seattle Center
07:44PM 46.9656 -121.2792 304° West 329 379 14,300 -1,920 Descending Seattle Center
07:45PM 47.0267 -121.4133 304° West 321 369 12,000 -1,620 Descending Seattle Center
07:46PM 47.0633 -121.4903 305° West 314 361 11,100 -660 Descending Seattle Center
07:47PM 47.1044 -121.5817 303° West 279 321 11,000 -720 Descending Seattle Center
07:48PM 47.1428 -121.6681 303° West 279 321 9,900 -1,140 Descending Seattle Center
07:48PM 47.1492 -121.6811 306° West 278 320 9,700 -1,440 Descending Seattle Center
07:49PM 47.1878 -121.7639 304° West 279 321 8,500 -1,380 Descending Seattle Center
07:49PM 47.1922 -121.7744 302° West 278 320 8,300 -1,500 Descending Seattle Center
07:50PM 47.2306 -121.8511 306° West 280 322 7,000 -1,380 Descending Seattle Center
07:50PM 47.2389 -121.8650 311° West 279 321 6,900 -1,140 Descending Seattle Center
07:51PM 47.2753 -121.9375 307° West 274 315 6,000 -1,140 Descending Seattle Center
07:51PM 47.2836 -121.9553 305° West 277 319 5,800 -1,380 Descending Seattle Center
07:52PM 47.3283 -122.0486 305° West 255 293 4,200 -1,740 Descending Seattle Center
07:53PM 47.3667 -122.1289 305° West 244 281 2,700 -1,020 Descending Seattle Center
07:54PM 47.4014 -122.1947 308° West 180 207 2,300 -420 Descending Seattle Center
07:55PM 47.4464 -122.2319 331° Northwest 147 169 1,900 -600 Descending Seattle Center
07:56PM 47.4700 -122.2550 327° Northwest 137 158 1,200 -840 Descending Seattle Center
07:56PM 47.4792 -122.2614 335° Northwest 140 161 1,000 -660 Descending Seattle Center
07:57PM 47.5094 -122.2861 331° Northwest 127 146 300 -480 Descending Seattle Center
07:58PM 47.5400 -122.3111 331° Northwest 127 146 100 -240 Descending Seattle Center